»·PEaware :: N1927H CAD4-KPAE

N1927H :: CAD4-KPAE

FLIGHT INFORMATION

Flight Status: Arrived
Operator: Privately registered:
United States
More flights under this callsign
Pilot: Wayne R. (17783)
Aircraft: PIPER PA-28R-201 ARROW
(P28R)
More flights by this aircraft type
Origin: CAD4 Trail
Canada
Destination: KPAE Paine Field/Snohomish Co.
United States
More flights between these airports :: More routes between these airports
Route:
File this flight plan on PilotEdge
Remarks:
Altitude:
(Current/Filed)
8,500ft
Speed:
(Current/Filed)
135kts
Departed: 02-Aug-20 01:01 PM
Arrived: 02-Aug-20 02:45 PM
Distance/Time
Traveled:
198nm/1:43
Distance/Time
To Go:
Arrived

Flight Plot

Page will automatically refresh every two minutes.

Flight plan parsing failed; only flown route is shown


Map Options




Map Legend


Flown Route
Filed Route
Departure Airport
Arrival Airport
Navaid (VOR, NDB)
Fix

Horizontal Profiles

Position Reports

Time Latitude Longitude Heading Altitude Ground
Speed
02-Aug-20 12:58 49.056408 -117.608434 272 1428ft 6kts
02-Aug-20 12:59 49.060059 -117.609460 359 1428ft 21kts
02-Aug-20 13:00 49.051837 -117.609421 180 1533ft 72kts
02-Aug-20 13:01 49.030299 -117.609634 186 2229ft 78kts
02-Aug-20 13:02 49.007437 -117.619442 204 2779ft 91kts
02-Aug-20 13:03 48.989506 -117.649806 224 3353ft 99kts
02-Aug-20 13:04 48.976266 -117.687393 236 3928ft 101kts
02-Aug-20 13:05 48.962748 -117.724191 231 4476ft 101kts
02-Aug-20 13:06 48.947410 -117.761671 231 4915ft 106kts
02-Aug-20 13:07 48.939145 -117.802258 254 5313ft 111kts
02-Aug-20 13:08 48.935450 -117.849077 254 5748ft 110kts
02-Aug-20 13:09 48.929891 -117.894765 251 6144ft 111kts
02-Aug-20 13:10 48.923796 -117.942332 251 6430ft 115kts
02-Aug-20 13:11 48.917553 -117.990823 251 6626ft 122kts
02-Aug-20 13:12 48.910451 -118.043440 252 6611ft 129kts
02-Aug-20 13:13 48.904295 -118.097925 253 6593ft 131kts
02-Aug-20 13:14 48.898016 -118.153212 253 6554ft 131kts
02-Aug-20 13:15 48.891796 -118.208095 253 6554ft 131kts
02-Aug-20 13:16 48.885578 -118.262971 253 6554ft 131kts
02-Aug-20 13:17 48.880799 -118.312747 256 6554ft 132kts
02-Aug-20 13:18 48.875908 -118.368182 255 6553ft 132kts
02-Aug-20 13:19 48.870842 -118.424404 255 6552ft 135kts
02-Aug-20 13:20 48.860662 -118.478137 244 6704ft 124kts
02-Aug-20 13:21 48.850157 -118.525392 244 7157ft 113kts
02-Aug-20 13:22 48.840494 -118.570344 244 7614ft 110kts
02-Aug-20 13:23 48.831325 -118.614042 244 8061ft 108kts
02-Aug-20 13:24 48.821840 -118.659134 244 8373ft 113kts
02-Aug-20 13:25 48.811679 -118.706377 244 8516ft 123kts
02-Aug-20 13:26 48.800360 -118.757282 244 8515ft 129kts
02-Aug-20 13:27 48.788603 -118.809025 243 8514ft 130kts
02-Aug-20 13:28 48.776177 -118.860467 240 8509ft 129kts
02-Aug-20 13:29 48.763340 -118.911576 240 8509ft 129kts
02-Aug-20 13:30 48.750368 -118.962291 240 8509ft 129kts
02-Aug-20 13:31 48.737201 -119.012957 240 8509ft 129kts
02-Aug-20 13:32 48.723787 -119.063714 241 8509ft 129kts
02-Aug-20 13:33 48.710898 -119.114494 242 8510ft 130kts
02-Aug-20 13:34 48.697870 -119.166134 242 8511ft 130kts
02-Aug-20 13:35 48.684911 -119.217554 242 8511ft 130kts
02-Aug-20 13:36 48.671996 -119.268679 242 8512ft 130kts
02-Aug-20 13:37 48.659002 -119.319982 242 8511ft 130kts
02-Aug-20 13:38 48.646654 -119.371405 243 8509ft 129kts
02-Aug-20 13:39 48.634602 -119.422699 243 8509ft 128kts
02-Aug-20 13:40 48.623045 -119.474133 244 8511ft 130kts
02-Aug-20 13:41 48.611205 -119.526260 243 8510ft 131kts
02-Aug-20 13:42 48.598938 -119.577957 243 8510ft 131kts
02-Aug-20 13:43 48.586588 -119.630077 243 8510ft 131kts
02-Aug-20 13:44 48.574207 -119.682239 243 8511ft 131kts
02-Aug-20 13:45 48.561874 -119.734088 244 8512ft 131kts
02-Aug-20 13:46 48.549384 -119.786155 244 8512ft 131kts
02-Aug-20 13:47 48.536841 -119.838258 244 8512ft 131kts
02-Aug-20 13:48 48.524268 -119.890302 243 8511ft 131kts
02-Aug-20 13:49 48.511877 -119.942215 245 8511ft 131kts
02-Aug-20 13:50 48.499401 -119.994027 244 8513ft 131kts
02-Aug-20 13:52 48.486735 -120.046207 245 8513ft 131kts
02-Aug-20 13:53 48.474125 -120.098186 244 8512ft 131kts
02-Aug-20 13:54 48.461511 -120.150161 245 8512ft 131kts
02-Aug-20 13:55 48.448981 -120.201840 245 8557ft 128kts
02-Aug-20 13:56 48.437270 -120.249675 245 8845ft 118kts
02-Aug-20 13:57 48.425923 -120.295737 244 9141ft 115kts
02-Aug-20 13:58 48.414786 -120.340717 244 9436ft 114kts
02-Aug-20 13:59 48.403702 -120.385292 244 9729ft 113kts
02-Aug-20 14:00 48.392611 -120.429500 245 10018ft 113kts
02-Aug-20 14:01 48.381457 -120.473640 244 10305ft 112kts
02-Aug-20 14:02 48.370161 -120.517618 245 10565ft 114kts
02-Aug-20 14:03 48.357905 -120.564697 245 10560ft 125kts
02-Aug-20 14:04 48.344814 -120.614705 245 10560ft 128kts
02-Aug-20 14:05 48.331747 -120.664412 244 10561ft 128kts
02-Aug-20 14:06 48.321125 -120.715927 250 10561ft 129kts
02-Aug-20 14:07 48.311624 -120.767760 250 10571ft 128kts
02-Aug-20 14:08 48.302028 -120.819142 250 10582ft 127kts
02-Aug-20 14:09 48.292487 -120.869917 255 10591ft 127kts
02-Aug-20 14:09 48.287808 -120.913946 258 10600ft 127kts
02-Aug-20 14:10 48.284380 -120.966885 265 10599ft 128kts
02-Aug-20 14:12 48.287305 -121.028737 266 10627ft 127kts
02-Aug-20 14:12 48.289781 -121.073190 267 10643ft 128kts
02-Aug-20 14:13 48.292787 -121.126992 268 10669ft 130kts
02-Aug-20 14:14 48.295813 -121.181684 266 10683ft 132kts
02-Aug-20 14:16 48.299847 -121.244269 266 10685ft 126kts
02-Aug-20 14:16 48.302806 -121.287925 265 10683ft 125kts
02-Aug-20 14:17 48.306401 -121.341024 266 10639ft 134kts
02-Aug-20 14:18 48.307850 -121.397744 262 10425ft 134kts
02-Aug-20 14:19 48.308507 -121.454527 263 10202ft 135kts
02-Aug-20 14:20 48.309184 -121.512843 263 9994ft 141kts
02-Aug-20 14:21 48.309727 -121.571213 262 9775ft 137kts
02-Aug-20 14:22 48.310313 -121.629496 263 9560ft 139kts
02-Aug-20 14:23 48.310915 -121.688677 263 9360ft 142kts
02-Aug-20 14:24 48.311249 -121.748392 261 9197ft 141kts
02-Aug-20 14:25 48.303487 -121.805929 251 8782ft 142kts
02-Aug-20 14:26 48.293190 -121.861399 235 8320ft 133kts
02-Aug-20 14:27 48.273779 -121.907356 221 7855ft 128kts
02-Aug-20 14:28 48.247471 -121.943506 215 7388ft 128kts
02-Aug-20 14:29 48.220526 -121.978745 215 6892ft 129kts
02-Aug-20 14:30 48.193438 -122.014268 215 6389ft 129kts
02-Aug-20 14:31 48.166274 -122.049992 216 5886ft 130kts
02-Aug-20 14:32 48.138938 -122.084048 208 5257ft 122kts
02-Aug-20 14:33 48.111096 -122.108137 203 4439ft 113kts
02-Aug-20 14:34 48.083481 -122.130537 196 3637ft 111kts
02-Aug-20 14:35 48.054802 -122.143654 196 2816ft 105kts
02-Aug-20 14:36 48.029724 -122.157385 195 2298ft 91kts
02-Aug-20 14:37 48.006087 -122.174142 205 1784ft 100kts
02-Aug-20 14:38 47.980694 -122.192557 206 1467ft 97kts
02-Aug-20 14:39 47.958608 -122.209935 206 1447ft 85kts
02-Aug-20 14:40 47.939843 -122.226020 203 1457ft 81kts
02-Aug-20 14:41 47.916618 -122.230919 182 1456ft 80kts
02-Aug-20 14:42 47.895623 -122.234725 208 1083ft 72kts
02-Aug-20 14:43 47.894352 -122.260236 301 781ft 75kts
02-Aug-20 14:44 47.905571 -122.271314 80 603ft 8kts
02-Aug-20 14:45 47.903756 -122.270271 183 600ft 0kts

Navigation Log

Ident Type
Flight plan parsing failed, navigation log unavailable